Time;durP1;ratioP1;P1;durP2;ratioP2;P2;SDS_P1;SDS_P2;PMS_P1;PMS_P2;Temp;Humidity;BMP_temperature;BMP_pressure;BME280_temperature;BME280_humidity;BME280_pressure;Samples;Min_cycle;Max_cycle;Signal;HPM_P1;HPM_P2
2023/07/25 03:42:28;;;;;;;;;;;;;;;;;;;;;
2023/07/25 03:44:54;;;;;;;14.63;4.10;;;15.90;99.90;;;;;;4040130;29;20285;-94
2023/07/25 03:47:04;;;;;;;10.38;4.05;;;15.90;99.90;;;;;;4013139;29;20182;-93
2023/07/25 03:49:18;;;;;;;11.65;3.50;;;16.00;99.90;;;;;;4022694;29;20225;-94
2023/07/25 03:51:47;;;;;;;11.02;3.55;;;15.90;99.90;;;;;;3993666;29;20194;-95
2023/07/25 03:57:15;;;;;;;14.40;3.75;;;15.70;99.90;;;;;;4039288;29;20589;-96
2023/07/25 04:00:41;;;;;;;10.52;3.35;;;15.80;99.90;;;;;;4037358;29;20209;-93
2023/07/25 04:03:40;;;;;;;;;;;;;;;;;;;;;
2023/07/25 04:09:06;;;;;;;16.13;4.22;;;15.80;99.90;;;;;;3986953;29;20322;-94
2023/07/25 04:11:22;;;;;;;;;;;;;;;;;;;;;
2023/07/25 04:14:37;;;;;;;10.20;3.47;;;15.40;99.90;;;;;;4006931;29;20274;-94
2023/07/25 04:16:55;;;;;;;;;;;;;;;;;;;;;
2023/07/25 04:19:28;;;;;;;12.27;3.90;;;15.40;99.90;;;;;;4037421;29;20261;-94
2023/07/25 04:22:13;;;;;;;11.93;4.00;;;15.50;99.90;;;;;;4038408;29;20575;-96
2023/07/25 04:26:59;;;;;;;12.40;3.72;;;15.50;99.90;;;;;;4258742;23;20240;-94
2023/07/25 04:29:54;;;;;;;11.23;3.75;;;15.70;99.90;;;;;;4038105;29;20241;-94
2023/07/25 04:32:46;;;;;;;13.40;3.53;;;15.80;99.90;;;;;;4055143;29;20173;-95
2023/07/25 04:43:59;;;;;;;12.05;3.95;;;15.80;99.90;;;;;;3931292;30;20764;-95
2023/07/25 04:57:41;;;;;;;;;;;;;;;;;;;;;
2023/07/25 05:00:21;;;;;;;13.65;3.35;;;16.10;99.90;;;;;;3902677;30;20219;-95
2023/07/25 05:03:09;;;;;;;14.45;3.35;;;16.30;99.90;;;;;;3901948;30;20199;-96
2023/07/25 05:09:29;;;;;;;15.10;3.30;;;16.30;99.90;;;;;;3908501;30;20724;-94
2023/07/25 05:12:07;;;;;;;7.50;3.78;;;16.00;99.90;;;;;;3941000;29;20183;-95
2023/07/25 05:14:32;;;;;;;11.35;3.67;;;16.00;99.90;;;;;;3976089;29;20192;-94
2023/07/25 05:16:44;;;;;;;18.52;3.45;;;15.90;99.90;;;;;;3984718;29;20196;-93
2023/07/25 05:18:47;;;;;;;13.80;3.65;;;15.90;99.90;;;;;;4052584;29;20693;-92
2023/07/25 05:20:48;;;;;;;7.82;3.30;;;15.80;99.90;;;;;;4037534;29;20276;-92
2023/07/25 05:22:49;;;;;;;12.90;3.55;;;15.80;99.90;;;;;;4052566;29;20181;-93
2023/07/25 05:24:50;;;;;;;11.80;3.80;;;15.90;99.90;;;;;;4037154;29;20178;-92
2023/07/25 05:26:51;;;;;;;10.93;3.63;;;16.10;99.90;;;;;;4039496;29;20202;-94
2023/07/25 05:28:54;;;;;;;9.98;3.25;;;16.40;99.90;;;;;;4040103;29;20697;-94
2023/07/25 05:31:00;;;;;;;10.63;3.03;;;16.50;99.90;;;;;;4040297;29;20211;-94
2023/07/25 05:33:01;;;;;;;10.32;3.20;;;16.60;99.90;;;;;;4055361;29;20180;-93
2023/07/25 05:35:02;;;;;;;8.88;3.20;;;16.70;99.90;;;;;;4039880;29;20190;-93
2023/07/25 05:37:08;;;;;;;11.50;3.25;;;16.80;99.90;;;;;;4039752;29;20245;-94
2023/07/25 05:39:16;;;;;;;12.43;3.35;;;16.80;99.90;;;;;;4055153;29;20698;-94
2023/07/25 05:41:23;;;;;;;18.05;3.70;;;17.00;99.90;;;;;;4040135;29;20189;-94
2023/07/25 05:43:30;;;;;;;12.82;2.97;;;17.00;99.90;;;;;;4055575;29;20208;-94
2023/07/25 05:45:31;;;;;;;11.23;3.35;;;17.10;99.90;;;;;;4039393;29;20226;-94
2023/07/25 05:47:32;;;;;;;11.63;2.92;;;17.00;99.90;;;;;;4055098;29;20317;-94
2023/07/25 05:49:33;;;;;;;13.82;3.13;;;17.00;99.90;;;;;;4039429;29;20229;-92
2023/07/25 05:51:36;;;;;;;10.23;3.38;;;17.00;99.90;;;;;;4054890;29;20244;-94
2023/07/25 05:53:39;;;;;;;9.48;3.15;;;17.00;99.90;;;;;;4039835;29;20209;-93
2023/07/25 05:55:44;;;;;;;11.45;3.25;;;17.00;99.90;;;;;;4039750;29;20716;-92
2023/07/25 05:57:48;;;;;;;11.52;3.38;;;16.90;99.90;;;;;;4039357;29;20184;-95
2023/07/25 05:59:56;;;;;;;11.93;3.20;;;16.80;99.90;;;;;;4054996;29;20209;-94
2023/07/25 06:02:03;;;;;;;11.68;3.38;;;16.60;99.90;;;;;;4039114;29;20273;-94
2023/07/25 06:04:13;;;;;;;12.85;3.13;;;16.80;99.90;;;;;;4054671;29;20283;-94
2023/07/25 06:10:36;;;;;;;9.20;2.90;;;16.70;99.90;;;;;;4032635;29;20228;-94
2023/07/25 06:19:44;;;;;;;8.20;2.80;;;16.90;99.90;;;;;;3959777;29;20227;-96
2023/07/25 06:24:48;;;;;;;14.13;3.65;;;16.70;99.90;;;;;;4042726;29;20669;-95
2023/07/25 06:26:54;;;;;;;14.32;3.38;;;16.90;99.90;;;;;;4039893;29;20958;-93
2023/07/25 06:29:05;;;;;;;10.25;3.13;;;16.90;99.90;;;;;;4038839;29;20718;-93
2023/07/25 06:31:08;;;;;;;15.90;3.63;;;17.00;99.90;;;;;;4054578;29;20181;-93
2023/07/25 06:33:16;;;;;;;10.82;3.10;;;17.10;99.90;;;;;;4054693;29;20219;-94
2023/07/25 06:35:32;;;;;;;;;;;;;;;;;;;;;
2023/07/25 06:37:36;;;;;;;13.60;2.63;;;17.40;99.90;;;;;;4037428;29;20239;-94
2023/07/25 06:39:37;;;;;;;14.65;2.25;;;17.70;99.90;;;;;;4038628;29;20281;-94
2023/07/25 06:41:47;;;;;;;7.30;2.15;;;17.60;99.90;;;;;;4023348;29;20654;-94
2023/07/25 06:44:08;;;;;;;15.45;2.58;;;17.50;99.90;;;;;;4040896;29;20528;-94
2023/07/25 06:46:26;;;;;;;13.35;2.15;;;17.30;99.90;;;;;;4054219;29;20276;-93
2023/07/25 06:48:49;;;;;;;12.63;2.20;;;17.20;99.90;;;;;;4053984;29;20696;-94
2023/07/25 06:51:04;;;;;;;12.02;2.20;;;17.50;99.90;;;;;;4027636;29;20189;-94
2023/07/25 06:55:39;;;;;;;17.35;2.28;;;17.90;99.90;;;;;;4044224;29;20682;-93
2023/07/25 06:57:52;;;;;;;13.65;2.05;;;17.80;99.90;;;;;;4040030;29;20341;-94
2023/07/25 07:00:03;;;;;;;8.98;2.15;;;17.90;99.90;;;;;;4039355;29;20240;-93
2023/07/25 07:02:09;;;;;;;13.02;2.28;;;17.80;99.90;;;;;;4023221;29;20265;-95
2023/07/25 07:04:12;;;;;;;12.98;2.42;;;17.60;99.90;;;;;;4038779;29;20204;-93
2023/07/25 07:08:57;;;;;;;10.85;2.13;;;18.40;99.90;;;;;;4057147;29;20232;-95
2023/07/25 07:13:37;;;;;;;8.30;1.88;;;18.80;99.90;;;;;;4050843;29;20272;-94
2023/07/25 07:16:21;;;;;;;8.98;1.77;;;19.20;99.90;;;;;;4053961;29;20178;-94
2023/07/25 07:18:43;;;;;;;9.60;2.45;;;18.90;99.90;;;;;;4039145;29;20181;-93
2023/07/25 07:20:53;;;;;;;14.43;2.00;;;19.10;99.90;;;;;;4022739;29;20255;-94
2023/07/25 07:23:23;;;;;;;7.90;1.85;;;19.30;99.90;;;;;;4052374;29;20185;-94
2023/07/25 07:25:57;;;;;;;11.60;1.75;;;20.10;99.90;;;;;;4038302;29;20234;-95
2023/07/25 07:27:57;;;;;;;14.50;2.13;;;20.30;99.90;;;;;;4038200;29;20221;-92
2023/07/25 07:29:59;;;;;;;10.65;1.98;;;20.90;99.90;;;;;;4038207;29;20216;-92
2023/07/25 07:32:08;;;;;;;9.88;1.75;;;20.90;99.90;;;;;;4053529;29;20184;-94
2023/07/25 07:34:14;;;;;;;5.25;1.50;;;20.50;99.90;;;;;;4038079;29;20258;-96
2023/07/25 07:36:15;;;;;;;8.93;2.05;;;19.70;99.90;;;;;;4053977;29;20184;-94
2023/07/25 07:38:16;;;;;;;11.52;1.75;;;19.70;99.90;;;;;;4054455;29;20256;-95
2023/07/25 07:40:23;;;;;;;17.38;2.40;;;19.50;99.90;;;;;;4039174;29;20234;-95
2023/07/25 07:42:23;;;;;;;14.32;2.08;;;19.40;99.90;;;;;;4054447;29;20221;-95
2023/07/25 07:44:24;;;;;;;11.00;1.67;;;19.70;99.90;;;;;;4053681;29;20231;-96
2023/07/25 07:46:32;;;;;;;12.88;2.30;;;19.70;99.90;;;;;;4038637;29;20320;-94
2023/07/25 07:48:32;;;;;;;11.27;1.65;;;19.70;99.90;;;;;;4037656;29;20258;-94
2023/07/25 07:50:33;;;;;;;9.95;1.95;;;19.20;99.90;;;;;;4037801;29;20696;-95
2023/07/25 07:52:41;;;;;;;8.00;1.80;;;19.10;99.90;;;;;;4038300;29;20185;-95
2023/07/25 07:54:41;;;;;;;7.63;1.80;;;19.10;99.90;;;;;;4037608;29;20220;-94
2023/07/25 07:56:42;;;;;;;11.65;2.30;;;19.00;99.90;;;;;;4053673;29;20663;-94
2023/07/25 07:58:43;;;;;;;9.15;1.95;;;18.90;99.90;;;;;;4039002;29;20799;-95
2023/07/25 08:00:44;;;;;;;10.77;1.80;;;18.90;99.90;;;;;;4038764;29;20544;-94
2023/07/25 08:02:45;;;;;;;10.27;2.20;;;18.90;99.90;;;;;;4038032;29;20197;-94
2023/07/25 08:04:46;;;;;;;10.02;2.20;;;18.60;99.90;;;;;;4052997;29;20176;-92
2023/07/25 08:06:48;;;;;;;15.82;2.55;;;18.40;99.90;;;;;;4053215;29;20271;-95
2023/07/25 08:08:49;;;;;;;12.32;2.72;;;18.20;99.90;;;;;;4037631;29;20232;-96
2023/07/25 08:10:50;;;;;;;21.33;3.30;;;18.40;99.90;;;;;;4038294;29;20265;-93
2023/07/25 08:12:58;;;;;;;9.00;2.33;;;18.50;99.90;;;;;;4037648;29;20266;-96
2023/07/25 08:15:01;;;;;;;9.43;2.10;;;18.60;99.90;;;;;;4053010;29;20185;-95
2023/07/25 08:17:04;;;;;;;10.00;2.35;;;18.60;99.90;;;;;;4053711;29;20657;-94
2023/07/25 08:19:25;;;;;;;13.48;2.58;;;18.70;99.90;;;;;;4053073;29;20201;-94
2023/07/25 08:21:29;;;;;;;10.05;2.60;;;18.60;99.90;;;;;;4037760;29;20280;-95
2023/07/25 08:23:32;;;;;;;12.93;2.13;;;18.70;99.90;;;;;;4052920;29;20199;-95
2023/07/25 08:25:33;;;;;;;9.63;2.00;;;18.90;99.90;;;;;;4053054;29;20173;-93
2023/07/25 08:27:44;;;;;;;14.77;1.45;;;18.70;99.90;;;;;;4053020;29;20283;-92
2023/07/25 08:29:45;;;;;;;12.05;1.42;;;18.60;99.90;;;;;;4037402;29;20227;-93
2023/07/25 08:31:46;;;;;;;6.03;1.45;;;18.60;99.90;;;;;;4053344;29;20662;-94
2023/07/25 08:33:47;;;;;;;7.28;1.60;;;18.80;99.90;;;;;;4038158;29;20205;-93
2023/07/25 08:35:48;;;;;;;15.00;2.40;;;19.00;99.90;;;;;;4053147;29;20185;-94
2023/07/25 08:37:51;;;;;;;5.22;1.33;;;18.80;99.90;;;;;;4039462;29;20212;-95
2023/07/25 08:39:59;;;;;;;13.88;1.98;;;18.70;99.90;;;;;;4023170;29;20210;-96
2023/07/25 08:42:08;;;;;;;8.45;1.63;;;18.70;99.90;;;;;;4037898;29;20202;-94
2023/07/25 08:44:14;;;;;;;8.38;2.03;;;18.70;99.90;;;;;;4052646;29;20199;-94
2023/07/25 08:46:18;;;;;;;10.55;1.45;;;18.90;99.90;;;;;;4038590;29;20182;-92
2023/07/25 08:48:25;;;;;;;9.85;1.40;;;18.80;99.90;;;;;;4052515;29;20264;-93
2023/07/25 08:50:58;;;;;;;5.93;1.30;;;18.90;99.90;;;;;;4037610;29;20188;-95
2023/07/25 08:55:54;;;;;;;4.55;1.30;;;18.80;99.90;;;;;;4046532;29;20213;-94
2023/07/25 08:57:58;;;;;;;7.10;1.30;;;18.90;99.90;;;;;;4037093;29;20225;-95
2023/07/25 09:00:23;;;;;;;7.43;1.63;;;18.90;99.90;;;;;;4053118;29;20553;-96
2023/07/25 09:02:47;;;;;;;6.28;1.40;;;18.70;99.90;;;;;;4055825;29;20655;-96
2023/07/25 09:05:08;;;;;;;9.77;1.40;;;18.80;99.90;;;;;;4056477;29;20348;-96
2023/07/25 09:07:11;;;;;;;7.93;1.60;;;18.80;99.90;;;;;;4040339;29;20273;-96
2023/07/25 09:09:14;;;;;;;6.32;1.67;;;18.70;99.90;;;;;;4041764;29;20706;-96
2023/07/25 09:11:25;;;;;;;7.95;1.60;;;18.50;99.90;;;;;;4056096;29;20531;-94
2023/07/25 09:13:31;;;;;;;8.70;1.55;;;18.80;99.90;;;;;;4055390;29;20181;-96
2023/07/25 09:15:53;;;;;;;8.80;1.33;;;18.90;99.90;;;;;;4056076;29;20181;-96
2023/07/25 09:17:59;;;;;;;9.05;1.40;;;18.80;99.90;;;;;;4040179;29;20226;-93
2023/07/25 09:20:10;;;;;;;6.40;1.27;;;18.80;99.90;;;;;;4055645;29;20199;-95
2023/07/25 09:22:31;;;;;;;7.82;1.55;;;18.70;99.90;;;;;;4040946;29;20280;-96
2023/07/25 09:24:58;;;;;;;8.50;1.25;;;18.80;99.90;;;;;;4055418;29;20185;-96
2023/07/25 09:27:28;;;;;;;7.07;1.40;;;18.80;99.90;;;;;;4037032;29;20209;-96
2023/07/25 09:36:23;;;;;;;5.95;1.17;;;18.30;99.90;;;;;;4015863;29;20226;-95
2023/07/25 09:39:20;;;;;;;;;;;;;;;;;;;;;
2023/07/25 09:45:18;;;;;;;9.88;1.20;;;18.30;99.90;;;;;;4012378;29;20183;-93
2023/07/25 09:47:59;;;;;;;7.25;1.27;;;19.00;99.90;;;;;;4010527;29;20193;-95
2023/07/25 09:50:29;;;;;;;9.73;1.65;;;19.40;99.90;;;;;;4023628;29;20230;-93
2023/07/25 09:53:15;;;;;;;10.73;1.90;;;19.30;99.90;;;;;;4043201;29;20185;-95
2023/07/25 09:55:31;;;;;;;7.78;1.40;;;19.10;99.90;;;;;;4039811;29;20730;-96
2023/07/25 10:04:43;;;;;;;15.57;1.80;;;18.60;99.90;;;;;;4040925;29;20196;-96
2023/07/25 10:07:05;;;;;;;13.00;1.67;;;18.50;99.90;;;;;;4018247;29;20190;-93
2023/07/25 10:09:38;;;;;;;7.00;1.40;;;18.50;99.90;;;;;;4007770;29;20226;-93
2023/07/25 10:12:02;;;;;;;;;;;;;;;;;;;;;
2023/07/25 10:35:03;;;;;;;10.10;1.60;;;18.40;99.90;;;;;;3950374;30;20193;-95
2023/07/25 13:55:32;;;;;;;0.93;0.30;;;22.00;99.90;;;;;;4069993;29;20208;-93
2023/07/25 13:57:53;;;;;;;3.88;0.50;;;21.80;99.90;;;;;;4039937;29;20192;-95
2023/07/25 14:00:49;;;;;;;1.30;0.50;;;21.80;99.90;;;;;;4054995;29;20244;-95
2023/07/25 14:03:44;;;;;;;;;;;;;;;;;;;;;
2023/07/25 14:10:13;;;;;;;;;;;;;;;;;;;;;
2023/07/25 14:13:45;;;;;;;3.65;0.60;;;21.60;99.90;;;;;;4006242;29;20187;-95
2023/07/25 14:16:03;;;;;;;;;;;;;;;;;;;;;
2023/07/25 14:18:15;;;;;;;1.98;0.47;;;21.70;99.90;;;;;;4008141;29;20222;-93
2023/07/25 14:20:59;;;;;;;5.85;1.02;;;21.90;99.90;;;;;;3995213;29;20317;-95
2023/07/25 14:27:41;;;;;;;4.80;0.80;;;22.20;99.90;;;;;;3993738;29;20535;-95
2023/07/25 14:30:40;;;;;;;3.33;0.70;;;22.30;99.90;;;;;;3948519;30;20327;-94
2023/07/25 14:33:59;;;;;;;7.13;0.68;;;22.60;99.90;;;;;;3994418;29;20180;-94
2023/07/25 14:36:39;;;;;;;3.00;0.50;;;22.30;99.90;;;;;;3983167;29;20726;-93
2023/07/25 14:39:00;;;;;;;1.50;0.50;;;22.40;99.90;;;;;;4060710;23;20228;-90
2023/07/25 14:41:01;;;;;;;3.00;0.47;;;22.40;99.90;;;;;;4023722;29;20206;-92
2023/07/25 14:43:02;;;;;;;3.22;0.50;;;22.20;99.90;;;;;;4039054;29;20269;-91
2023/07/25 14:45:04;;;;;;;0.73;0.25;;;22.30;99.90;;;;;;4039065;29;20193;-92
2023/07/25 14:47:05;;;;;;;1.42;0.60;;;22.10;99.90;;;;;;4039005;29;20190;-91
2023/07/25 14:49:05;;;;;;;3.13;0.50;;;22.40;99.90;;;;;;4054170;29;20255;-92
2023/07/25 14:51:06;;;;;;;4.13;0.68;;;22.60;99.90;;;;;;4054532;29;20189;-92
2023/07/25 14:53:07;;;;;;;2.47;0.70;;;22.80;99.90;;;;;;4038915;29;20185;-93
2023/07/25 14:55:08;;;;;;;2.25;0.60;;;22.60;99.90;;;;;;4054354;29;20204;-91
2023/07/25 14:57:09;;;;;;;7.07;1.13;;;22.70;99.90;;;;;;4038601;29;20186;-92
2023/07/25 14:59:10;;;;;;;2.45;0.40;;;22.60;99.90;;;;;;4037652;29;20345;-91
2023/07/25 15:01:11;;;;;;;1.45;0.50;;;22.50;99.90;;;;;;4038569;29;20222;-91
2023/07/25 15:03:11;;;;;;;2.03;0.57;;;22.60;99.90;;;;;;4038682;29;20190;-90
2023/07/25 15:05:12;;;;;;;1.98;0.45;;;22.60;99.90;;;;;;4038878;29;20196;-91
2023/07/25 15:07:13;;;;;;;1.23;0.45;;;22.40;99.90;;;;;;4054224;29;20181;-90
2023/07/25 15:09:14;;;;;;;5.93;0.60;;;22.40;99.90;;;;;;4053956;29;20236;-90
2023/07/25 15:11:15;;;;;;;3.55;0.90;;;22.70;99.90;;;;;;4038469;29;20654;-91
2023/07/25 15:13:15;;;;;;;2.08;0.63;;;23.20;99.90;;;;;;4053912;29;20215;-90
2023/07/25 15:15:17;;;;;;;1.52;0.70;;;23.20;99.90;;;;;;4038258;29;20181;-90
2023/07/25 15:17:22;;;;;;;2.35;0.60;;;23.30;99.90;;;;;;4038484;29;20182;-90
2023/07/25 15:19:22;;;;;;;4.70;0.68;;;23.30;99.90;;;;;;4023096;29;20202;-90
2023/07/25 15:21:23;;;;;;;4.68;0.60;;;23.00;99.90;;;;;;4038337;29;20201;-90
2023/07/25 15:23:24;;;;;;;2.47;0.60;;;22.50;99.90;;;;;;4023026;29;20277;-89
2023/07/25 15:25:24;;;;;;;2.60;0.60;;;21.80;99.90;;;;;;4023037;29;20178;-90
2023/07/25 15:27:26;;;;;;;2.30;0.40;;;21.80;99.90;;;;;;4038306;29;20738;-93
2023/07/25 15:29:27;;;;;;;1.67;0.50;;;21.60;99.90;;;;;;4022857;29;20202;-90
2023/07/25 15:31:30;;;;;;;6.97;0.63;;;21.50;99.90;;;;;;4038346;29;20283;-90
2023/07/25 15:33:30;;;;;;;1.05;0.52;;;21.90;99.90;;;;;;4022642;29;20201;-90
2023/07/25 15:35:31;;;;;;;4.18;0.60;;;22.10;99.90;;;;;;4022623;29;20183;-90
2023/07/25 15:37:32;;;;;;;3.70;0.65;;;22.30;99.90;;;;;;4022747;29;20281;-90
2023/07/25 15:39:33;;;;;;;5.22;0.60;;;22.40;99.90;;;;;;4037975;29;20224;-90
2023/07/25 15:41:33;;;;;;;3.40;0.50;;;22.70;99.90;;;;;;4022685;29;20198;-89
2023/07/25 15:43:34;;;;;;;3.55;0.63;;;22.80;99.90;;;;;;4022826;29;20206;-89
2023/07/25 15:45:37;;;;;;;3.10;0.60;;;22.40;99.90;;;;;;4038069;29;20190;-90
2023/07/25 15:47:37;;;;;;;4.72;0.60;;;22.30;99.90;;;;;;4038176;29;20197;-89
2023/07/25 15:49:38;;;;;;;4.57;0.90;;;21.90;99.90;;;;;;4039234;29;20659;-89
2023/07/25 15:51:39;;;;;;;2.90;0.90;;;21.70;99.90;;;;;;4040351;29;20198;-91
2023/07/25 15:53:39;;;;;;;3.13;0.60;;;21.70;99.90;;;;;;4039573;29;20186;-89
2023/07/25 15:55:40;;;;;;;6.63;0.77;;;21.60;99.90;;;;;;4054663;29;20189;-91
2023/07/25 15:57:41;;;;;;;4.03;0.75;;;21.40;99.90;;;;;;4040949;29;20547;-90
2023/07/25 15:59:41;;;;;;;2.47;0.65;;;21.50;99.90;;;;;;4039516;29;20252;-90
2023/07/25 16:01:44;;;;;;;1.50;0.60;;;21.60;99.90;;;;;;4054912;29;20192;-90
2023/07/25 16:03:46;;;;;;;2.65;0.70;;;21.50;99.90;;;;;;4040306;29;20254;-89
2023/07/25 16:05:47;;;;;;;4.63;0.73;;;21.40;99.90;;;;;;4038729;29;20647;-89
2023/07/25 16:07:47;;;;;;;5.50;0.77;;;21.70;99.90;;;;;;4053329;29;20268;-90
2023/07/25 16:09:48;;;;;;;1.70;0.40;;;21.60;99.90;;;;;;4037454;29;20245;-91
2023/07/25 16:11:49;;;;;;;7.43;0.80;;;21.40;99.90;;;;;;4053007;29;20280;-90
2023/07/25 16:13:50;;;;;;;3.38;0.70;;;21.70;99.90;;;;;;4037913;29;20192;-91
2023/07/25 16:15:51;;;;;;;5.75;0.75;;;21.80;99.90;;;;;;4053341;29;20666;-93
2023/07/25 16:17:52;;;;;;;2.58;0.40;;;21.90;99.90;;;;;;4037778;29;20261;-90
2023/07/25 16:19:52;;;;;;;2.20;0.55;;;22.30;99.90;;;;;;4037582;29;20308;-90
2023/07/25 16:21:53;;;;;;;5.55;0.60;;;22.30;99.90;;;;;;4037941;29;20193;-92
2023/07/25 16:23:54;;;;;;;1.63;0.55;;;21.90;99.90;;;;;;4037612;29;20178;-92
2023/07/25 16:25:56;;;;;;;5.43;0.60;;;21.60;99.90;;;;;;4053110;29;20191;-90
2023/07/25 16:27:57;;;;;;;1.98;0.47;;;21.60;99.90;;;;;;4037740;29;20660;-89
2023/07/25 16:29:57;;;;;;;4.18;0.65;;;22.00;99.90;;;;;;4037178;29;20305;-90
2023/07/25 16:31:58;;;;;;;2.83;0.65;;;22.00;99.90;;;;;;4037281;29;20190;-93
2023/07/25 16:33:59;;;;;;;1.20;0.40;;;22.00;99.90;;;;;;4052939;29;20184;-90
2023/07/25 16:36:00;;;;;;;3.53;0.55;;;22.00;99.90;;;;;;4037493;29;20190;-90
2023/07/25 16:38:01;;;;;;;4.68;0.50;;;22.20;99.90;;;;;;4052783;29;20205;-93
2023/07/25 16:40:02;;;;;;;3.17;0.45;;;22.30;99.90;;;;;;4037255;29;20240;-91
2023/07/25 16:42:03;;;;;;;2.33;0.60;;;22.60;99.90;;;;;;4037464;29;20194;-90
2023/07/25 16:44:04;;;;;;;2.78;0.60;;;22.70;99.90;;;;;;4037355;29;20646;-90
2023/07/25 16:46:05;;;;;;;2.38;0.55;;;22.80;99.90;;;;;;4037425;29;20185;-90
2023/07/25 16:48:05;;;;;;;1.95;0.57;;;22.70;99.90;;;;;;4037376;29;20198;-90
2023/07/25 16:50:06;;;;;;;4.18;0.70;;;22.80;99.90;;;;;;4052677;29;20220;-91
2023/07/25 16:52:07;;;;;;;3.92;0.60;;;22.70;99.90;;;;;;4052943;29;20192;-90
2023/07/25 16:54:08;;;;;;;5.50;0.52;;;22.90;99.90;;;;;;4052682;29;20642;-91
2023/07/25 16:56:09;;;;;;;2.55;0.60;;;23.00;99.90;;;;;;4037517;29;20181;-90
2023/07/25 16:58:10;;;;;;;5.30;0.70;;;22.60;99.90;;;;;;4052927;29;20192;-90
2023/07/25 17:00:11;;;;;;;4.07;0.80;;;22.20;99.90;;;;;;4037063;29;20228;-89
2023/07/25 17:02:11;;;;;;;6.43;0.80;;;22.40;99.90;;;;;;4052732;29;20220;-89
2023/07/25 17:04:12;;;;;;;2.70;0.98;;;21.80;99.90;;;;;;4037241;29;20694;-90
2023/07/25 17:06:13;;;;;;;1.85;0.75;;;21.60;99.90;;;;;;4037462;29;20245;-90
2023/07/25 17:08:15;;;;;;;4.05;0.70;;;21.60;99.90;;;;;;4052473;29;20184;-89
2023/07/25 17:10:15;;;;;;;2.47;0.77;;;21.50;99.90;;;;;;4052575;29;20213;-89
2023/07/25 17:12:16;;;;;;;2.13;0.50;;;21.40;99.90;;;;;;4052704;29;20192;-89
2023/07/25 17:14:17;;;;;;;2.67;0.80;;;21.20;99.90;;;;;;4037164;29;20208;-89
2023/07/25 17:16:17;;;;;;;3.05;0.60;;;21.20;99.90;;;;;;4037604;29;20181;-88
2023/07/25 17:18:18;;;;;;;1.75;0.63;;;21.10;99.90;;;;;;4037040;29;20196;-89
2023/07/25 17:20:21;;;;;;;1.95;0.80;;;21.20;99.90;;;;;;4052733;29;20252;-89
2023/07/25 17:22:22;;;;;;;4.78;0.77;;;21.20;99.90;;;;;;4039151;29;20284;-89
2023/07/25 17:24:23;;;;;;;2.15;0.60;;;21.20;99.90;;;;;;4055755;29;20181;-89
2023/07/25 17:26:24;;;;;;;2.65;0.60;;;21.20;99.90;;;;;;4040133;29;20249;-90
2023/07/25 17:28:25;;;;;;;4.03;0.70;;;21.00;99.90;;;;;;4040003;29;20245;-89
2023/07/25 17:30:26;;;;;;;3.33;0.70;;;20.90;99.90;;;;;;4039892;29;20206;-88
2023/07/25 17:32:26;;;;;;;2.75;0.55;;;20.50;99.90;;;;;;4055322;29;20193;-87
2023/07/25 17:34:27;;;;;;;0.77;0.40;;;20.60;99.90;;;;;;4043414;29;20225;-96
2023/07/25 17:36:29;;;;;;;2.33;0.70;;;20.80;99.90;;;;;;4039972;29;20189;-87
2023/07/25 17:38:30;;;;;;;3.70;0.50;;;20.80;99.90;;;;;;4039465;29;20293;-87
2023/07/25 17:40:31;;;;;;;4.93;0.65;;;20.90;99.90;;;;;;4039984;29;20193;-87
2023/07/25 17:42:32;;;;;;;6.10;0.93;;;20.80;99.90;;;;;;4039783;29;20178;-87
2023/07/25 17:44:32;;;;;;;4.32;0.70;;;20.70;99.90;;;;;;4039656;29;20193;-87
2023/07/25 17:46:33;;;;;;;3.65;0.70;;;20.90;99.90;;;;;;4040226;29;20607;-87
2023/07/25 17:48:34;;;;;;;2.58;0.70;;;20.90;99.90;;;;;;4039979;29;20186;-87
2023/07/25 17:50:35;;;;;;;4.63;0.88;;;20.70;99.90;;;;;;4040598;29;20221;-87
2023/07/25 17:52:35;;;;;;;7.03;0.82;;;20.80;99.90;;;;;;4040859;29;20186;-87
2023/07/25 17:54:36;;;;;;;6.05;0.80;;;20.60;99.90;;;;;;4055349;29;20532;-87
2023/07/25 17:56:37;;;;;;;3.08;0.93;;;20.70;99.90;;;;;;4040467;29;20188;-91
2023/07/25 17:58:37;;;;;;;4.10;0.80;;;20.80;99.90;;;;;;4040574;29;20219;-87
2023/07/25 18:00:39;;;;;;;3.55;0.70;;;20.70;99.90;;;;;;4040619;29;20192;-87
2023/07/25 18:02:39;;;;;;;3.60;0.63;;;20.80;99.90;;;;;;4040678;29;20340;-88
2023/07/25 18:04:40;;;;;;;3.60;0.60;;;20.60;99.90;;;;;;4055481;29;20185;-87
2023/07/25 18:06:41;;;;;;;4.38;0.70;;;20.60;99.90;;;;;;4040529;29;20212;-96
2023/07/25 18:08:42;;;;;;;4.38;0.70;;;20.70;99.90;;;;;;4057945;29;20249;-87
2023/07/25 18:10:43;;;;;;;8.27;1.10;;;20.80;99.90;;;;;;4040565;29;20220;-87
2023/07/25 18:12:44;;;;;;;2.10;0.70;;;20.80;99.90;;;;;;4056131;29;20245;-88
2023/07/25 18:14:44;;;;;;;5.70;0.80;;;20.80;99.90;;;;;;4039864;29;20194;-87
2023/07/25 18:16:45;;;;;;;4.63;0.82;;;20.90;99.90;;;;;;4055607;29;20201;-87
2023/07/25 18:18:46;;;;;;;4.32;0.90;;;20.90;99.90;;;;;;4040486;29;20872;-87
2023/07/25 18:20:47;;;;;;;4.60;0.80;;;21.00;99.90;;;;;;4040197;29;20233;-87
2023/07/25 18:22:47;;;;;;;3.20;0.77;;;21.00;99.90;;;;;;4041200;29;20186;-87
2023/07/25 18:24:48;;;;;;;2.03;0.63;;;21.00;99.90;;;;;;4040421;29;20220;-87
2023/07/25 18:26:49;;;;;;;4.53;0.80;;;20.90;99.90;;;;;;4040823;29;20188;-95
2023/07/25 18:28:50;;;;;;;5.55;1.10;;;21.00;99.90;;;;;;4041064;29;20699;-89
2023/07/25 18:30:50;;;;;;;1.00;0.70;;;20.90;99.90;;;;;;4040527;29;20200;-87
2023/07/25 18:32:51;;;;;;;3.53;0.77;;;20.60;99.90;;;;;;4054606;29;20601;-87
2023/07/25 18:34:52;;;;;;;2.65;0.70;;;20.50;99.90;;;;;;4057331;29;20225;-96
2023/07/25 18:36:52;;;;;;;4.35;0.77;;;20.40;99.90;;;;;;4039380;29;20216;-87
2023/07/25 18:38:53;;;;;;;3.63;0.88;;;20.50;99.90;;;;;;4054621;29;20232;-86
2023/07/25 18:40:54;;;;;;;3.42;0.70;;;20.70;99.90;;;;;;4054591;29;20192;-87
2023/07/25 18:42:55;;;;;;;4.32;0.77;;;20.60;99.90;;;;;;4038889;29;20178;-95
2023/07/25 18:44:55;;;;;;;3.85;0.90;;;20.50;99.90;;;;;;4038843;29;20196;-87
2023/07/25 18:46:56;;;;;;;3.38;0.75;;;20.40;99.90;;;;;;4038919;29;20182;-87
2023/07/25 18:48:57;;;;;;;4.43;0.80;;;20.10;99.90;;;;;;4054170;29;20197;-87
2023/07/25 18:50:57;;;;;;;3.67;1.00;;;20.10;99.90;;;;;;4039319;29;20193;-94
2023/07/25 18:52:58;;;;;;;3.20;0.82;;;20.00;99.90;;;;;;4039237;29;20181;-86
2023/07/25 18:54:59;;;;;;;2.90;0.75;;;20.10;99.90;;;;;;4055064;29;20189;-87
2023/07/25 18:56:59;;;;;;;5.28;0.90;;;20.10;99.90;;;;;;4055395;29;20177;-96
2023/07/25 18:59:01;;;;;;;2.13;0.65;;;20.10;99.90;;;;;;4038838;29;20324;-87
2023/07/25 19:01:02;;;;;;;1.95;0.50;;;20.20;99.90;;;;;;4038837;29;20225;-87
2023/07/25 19:03:03;;;;;;;2.70;0.70;;;20.20;99.90;;;;;;4038972;29;20265;-87
2023/07/25 19:05:04;;;;;;;1.58;0.52;;;20.10;99.90;;;;;;4039042;29;20189;-89
2023/07/25 19:07:05;;;;;;;2.17;0.70;;;20.10;99.90;;;;;;4039250;29;20200;-88
2023/07/25 19:09:07;;;;;;;2.75;0.73;;;20.10;99.90;;;;;;4038996;29;20209;-87
2023/07/25 19:11:08;;;;;;;4.93;0.70;;;20.10;99.90;;;;;;4038835;29;20186;-95
2023/07/25 19:13:08;;;;;;;1.85;0.70;;;20.00;99.90;;;;;;4038810;29;20192;-87
2023/07/25 19:15:09;;;;;;;2.05;0.60;;;20.10;99.90;;;;;;4038458;29;20182;-86
2023/07/25 19:17:10;;;;;;;1.92;0.93;;;20.00;99.90;;;;;;4054151;29;20313;-86
2023/07/25 19:19:11;;;;;;;2.55;0.75;;;19.70;99.90;;;;;;4038407;29;20240;-87
2023/07/25 19:21:11;;;;;;;1.88;0.60;;;19.90;99.90;;;;;;4038666;29;20194;-87
2023/07/25 19:23:12;;;;;;;5.15;0.80;;;19.90;99.90;;;;;;4053967;29;20177;-88
2023/07/25 19:25:13;;;;;;;3.92;0.70;;;20.00;99.90;;;;;;4053698;29;20674;-87
2023/07/25 19:27:13;;;;;;;4.30;0.80;;;19.90;99.90;;;;;;4053609;29;20181;-87
2023/07/25 19:29:14;;;;;;;3.63;0.80;;;20.00;99.90;;;;;;4038272;29;20205;-86
2023/07/25 19:31:15;;;;;;;6.28;0.60;;;19.90;99.90;;;;;;4038380;29;20309;-87
2023/07/25 19:33:15;;;;;;;4.30;0.68;;;19.90;99.90;;;;;;4038418;29;20192;-87
2023/07/25 19:35:16;;;;;;;2.47;0.60;;;19.90;99.90;;;;;;4053730;29;20189;-87
2023/07/25 19:37:17;;;;;;;3.75;0.82;;;19.90;99.90;;;;;;4038067;29;20194;-86
2023/07/25 19:39:17;;;;;;;3.65;0.90;;;19.90;99.90;;;;;;4038007;29;20232;-87
2023/07/25 19:41:18;;;;;;;3.58;0.80;;;19.80;99.90;;;;;;4053306;29;20251;-87
2023/07/25 19:43:19;;;;;;;4.63;0.73;;;19.70;99.90;;;;;;4053380;29;20177;-87
2023/07/25 19:45:20;;;;;;;5.65;1.00;;;19.50;99.90;;;;;;4037650;29;20276;-87
2023/07/25 19:47:20;;;;;;;6.18;0.80;;;19.50;99.90;;;;;;4038049;29;20543;-86
2023/07/25 19:49:21;;;;;;;3.85;0.77;;;19.50;99.90;;;;;;4038264;29;20284;-86
2023/07/25 19:51:22;;;;;;;7.45;1.20;;;19.40;99.90;;;;;;4053278;29;20191;-87
2023/07/25 19:53:23;;;;;;;3.92;1.75;;;19.40;99.90;;;;;;4038158;29;20225;-87
2023/07/25 19:55:23;;;;;;;2.75;1.50;;;19.50;99.90;;;;;;4038456;29;20183;-94
2023/07/25 19:57:24;;;;;;;5.95;1.45;;;19.70;99.90;;;;;;4053444;29;20196;-87
2023/07/25 19:59:25;;;;;;;3.65;1.70;;;19.70;99.90;;;;;;4037701;29;20622;-87